Terminal Aerodrome Forecast
Issued by NWS

Home | Current Version | Previous Version | Text Only | Print | Product List | Glossary On
Versions: 1 2 3 4 5 6 7 8 9 10 11 12 13 14 15
268
FTUS42 KMLB 202320
TAFSFB
TAF
KSFB 202320Z 2100/2124 24006KT P6SM SCT080 BKN100
     FM210800 20003KT 3SM BR SCT004 BKN007
      TEMPO 2110/2113 BKN004
     FM211400 19008KT P6SM FEW010 BKN150
     FM211800 21011KT P6SM SCT040=

USA.gov is the U.S. government's official web portal to all federal, state and local government web resources and services.